LPE2694 SPJC-KMIA
Flight info
| Callsign | LPE2694 |
|---|---|
| Flight time | N/A |
| Altitude | 33000 |
| Route | TISLI2 ILROL UM795 LOBOT/N0495F340 UM795 BOKAN/N0491F330 UM795 PML/N0489F350 UM795 COLBY/N0485F340 DCT NIBEO/N0484F350 DCT ALTIB/N0480F340 UM779 ZEUSS VIICE2 |
| Aircraft | B77W/H-HSDE1E2E3FGHIJ2J3J4J5M1RWXY/LB1D1 |
Departure
| Time | 2026-04-27 21:21 |
|---|---|
| Airport | Jorge Chávez International Airport (SPJC) |
Arrival
| Time | N/A |
|---|---|
| Airport | Miami International Airport (KMIA) |
| Time | Latitude | Longitude | Altitude | Speed | Heading |
|---|---|---|---|---|---|
| 2026-04-27 21:01 | -12.02604 | -77.11742 | 85 ft | 0 kts | 244° |
| 2026-04-27 21:08 | -12.02595 | -77.11724 | 89 ft | 4 kts | 244° |
| 2026-04-27 21:08 | -12.02583 | -77.11699 | 89 ft | 4 kts | 244° |
| 2026-04-27 21:08 | -12.02571 | -77.11674 | 90 ft | 4 kts | 244° |
| 2026-04-27 21:08 | -12.02562 | -77.11653 | 90 ft | 0 kts | 244° |
| 2026-04-27 21:14 | -12.02562 | -77.11657 | 90 ft | 1 kts | 255° |
| 2026-04-27 21:14 | -12.02544 | -77.11689 | 90 ft | 10 kts | 316° |
| 2026-04-27 21:14 | -12.02461 | -77.11723 | 90 ft | 14 kts | 346° |
| 2026-04-27 21:15 | -12.02374 | -77.11683 | 89 ft | 15 kts | 54° |
| 2026-04-27 21:15 | -12.02284 | -77.11645 | 86 ft | 17 kts | 342° |
| 2026-04-27 21:15 | -12.02163 | -77.11703 | 69 ft | 21 kts | 331° |
| 2026-04-27 21:15 | -12.02027 | -77.11776 | 68 ft | 24 kts | 332° |
| 2026-04-27 21:16 | -12.01897 | -77.11843 | 61 ft | 12 kts | 336° |
| 2026-04-27 21:16 | -12.01824 | -77.11825 | 65 ft | 11 kts | 38° |
| 2026-04-27 21:16 | -12.01744 | -77.11825 | 63 ft | 13 kts | 336° |
| 2026-04-27 21:16 | -12.01656 | -77.11873 | 60 ft | 16 kts | 332° |
| 2026-04-27 21:17 | -12.01588 | -77.11909 | 61 ft | 17 kts | 333° |
| 2026-04-27 21:17 | -12.01473 | -77.11967 | 60 ft | 20 kts | 334° |
| 2026-04-27 21:17 | -12.01340 | -77.12033 | 56 ft | 23 kts | 334° |
| 2026-04-27 21:17 | -12.01233 | -77.12134 | 54 ft | 21 kts | 310° |
| 2026-04-27 21:18 | -12.01060 | -77.12231 | 51 ft | 15 kts | 333° |
| 2026-04-27 21:18 | -12.01014 | -77.12257 | 53 ft | 10 kts | 331° |
| 2026-04-27 21:18 | -12.00943 | -77.12295 | 49 ft | 13 kts | 334° |
| 2026-04-27 21:18 | -12.00857 | -77.12302 | 50 ft | 14 kts | 40° |
| 2026-04-27 21:19 | -12.00840 | -77.12279 | 50 ft | 1 kts | 62° |
| 2026-04-27 21:19 | -12.00834 | -77.12268 | 51 ft | 3 kts | 61° |
| 2026-04-27 21:19 | -12.00823 | -77.12244 | 52 ft | 5 kts | 65° |
| 2026-04-27 21:20 | -12.00781 | -77.12149 | 52 ft | 6 kts | 67° |
| 2026-04-27 21:20 | -12.00780 | -77.12139 | 53 ft | 2 kts | 92° |
| 2026-04-27 21:20 | -12.00787 | -77.12129 | 50 ft | 4 kts | 134° |
| 2026-04-27 21:20 | -12.00882 | -77.12076 | 52 ft | 28 kts | 152° |
| 2026-04-27 21:21 | -12.01201 | -77.11919 | 56 ft | 89 kts | 154° |
| 2026-04-27 21:21 | -12.02033 | -77.11512 | 67 ft | 175 kts | 154° |
| 2026-04-27 21:21 | -12.03342 | -77.10936 | 342 ft | 222 kts | 160° |
| 2026-04-27 21:21 | -12.04766 | -77.10362 | 1532 ft | 217 kts | 155° |
| 2026-04-27 21:22 | -12.06098 | -77.09636 | 2440 ft | 224 kts | 152° |
| 2026-04-27 21:22 | -12.07526 | -77.08860 | 2766 ft | 244 kts | 153° |
| 2026-04-27 21:22 | -12.09109 | -77.08042 | 3315 ft | 258 kts | 153° |
| 2026-04-27 21:22 | -12.10723 | -77.07232 | 3938 ft | 267 kts | 154° |
| 2026-04-27 21:23 | -12.12424 | -77.06391 | 4634 ft | 274 kts | 155° |
| 2026-04-27 21:23 | -12.14261 | -77.05865 | 5211 ft | 279 kts | 182° |
| 2026-04-27 21:23 | -12.16103 | -77.06363 | 5834 ft | 279 kts | 212° |
| 2026-04-27 21:23 | -12.17537 | -77.07713 | 6034 ft | 282 kts | 238° |
| 2026-04-27 21:24 | -12.18181 | -77.09579 | 6037 ft | 280 kts | 265° |
| 2026-04-27 21:24 | -12.18053 | -77.11547 | 6191 ft | 277 kts | 281° |
| 2026-04-27 21:24 | -12.17642 | -77.13483 | 6901 ft | 280 kts | 283° |
| 2026-04-27 21:24 | -12.17214 | -77.15436 | 7582 ft | 284 kts | 282° |
| 2026-04-27 21:25 | -12.16810 | -77.17423 | 8276 ft | 287 kts | 281° |
| 2026-04-27 21:25 | -12.16438 | -77.19412 | 8946 ft | 291 kts | 280° |
| 2026-04-27 21:25 | -12.16068 | -77.21495 | 9638 ft | 296 kts | 279° |
| 2026-04-27 21:25 | -12.15707 | -77.23560 | 10265 ft | 300 kts | 279° |
| 2026-04-27 21:26 | -12.15215 | -77.25681 | 10524 ft | 316 kts | 294° |
| 2026-04-27 21:26 | -12.13844 | -77.27499 | 10680 ft | 336 kts | 323° |
| 2026-04-27 21:26 | -12.11702 | -77.28585 | 10826 ft | 357 kts | 344° |
| 2026-04-27 21:26 | -12.09177 | -77.28932 | 11031 ft | 376 kts | 4° |
| 2026-04-27 21:27 | -12.06556 | -77.28535 | 11398 ft | 383 kts | 10° |
| 2026-04-27 21:27 | -12.03871 | -77.28266 | 11789 ft | 394 kts | 0° |
| 2026-04-27 21:27 | -12.01114 | -77.28319 | 12462 ft | 397 kts | 359° |
| 2026-04-27 21:27 | -11.98340 | -77.28384 | 13200 ft | 399 kts | 359° |
| 2026-04-27 21:28 | -11.95588 | -77.28433 | 13842 ft | 403 kts | 360° |
| 2026-04-27 21:28 | -11.92770 | -77.28472 | 14405 ft | 407 kts | 0° |
| 2026-04-27 21:28 | -11.89936 | -77.28502 | 15053 ft | 408 kts | 0° |
| 2026-04-27 21:28 | -11.87088 | -77.28529 | 15736 ft | 409 kts | 0° |
| 2026-04-27 21:29 | -11.84227 | -77.28554 | 16347 ft | 411 kts | 0° |
| 2026-04-27 21:29 | -11.81363 | -77.28579 | 16928 ft | 414 kts | 1° |
| 2026-04-27 21:29 | -11.78461 | -77.28603 | 17486 ft | 418 kts | 1° |
| 2026-04-27 21:29 | -11.75570 | -77.28627 | 18049 ft | 420 kts | 1° |
| 2026-04-27 21:30 | -11.72630 | -77.28652 | 18526 ft | 424 kts | 1° |
| 2026-04-27 21:30 | -11.69649 | -77.28678 | 18961 ft | 429 kts | 1° |
| 2026-04-27 21:30 | -11.66659 | -77.28703 | 19417 ft | 432 kts | 1° |
| 2026-04-27 21:30 | -11.63636 | -77.28730 | 19885 ft | 435 kts | 1° |
| 2026-04-27 21:31 | -11.60605 | -77.28756 | 20349 ft | 438 kts | 1° |
| 2026-04-27 21:31 | -11.57539 | -77.28782 | 20773 ft | 442 kts | 0° |
| 2026-04-27 21:31 | -11.54445 | -77.28809 | 21215 ft | 445 kts | 1° |
| 2026-04-27 21:31 | -11.51334 | -77.28836 | 21651 ft | 448 kts | 0° |
| 2026-04-27 21:32 | -11.48198 | -77.28863 | 22087 ft | 452 kts | 0° |
| 2026-04-27 21:32 | -11.45084 | -77.28891 | 22509 ft | 455 kts | 0° |
| 2026-04-27 21:32 | -11.41900 | -77.28919 | 22915 ft | 459 kts | 1° |
| 2026-04-27 21:32 | -11.38695 | -77.28946 | 23314 ft | 462 kts | 0° |
| 2026-04-27 21:33 | -11.35459 | -77.28974 | 23665 ft | 465 kts | 1° |
| 2026-04-27 21:33 | -11.32213 | -77.29002 | 24004 ft | 468 kts | 0° |
| 2026-04-27 21:33 | -11.28941 | -77.29031 | 24363 ft | 470 kts | 0° |
| 2026-04-27 21:33 | -11.25663 | -77.29059 | 24716 ft | 472 kts | 0° |
| 2026-04-27 21:34 | -11.22363 | -77.29088 | 25044 ft | 475 kts | 0° |
| 2026-04-27 21:34 | -11.19055 | -77.29116 | 25365 ft | 477 kts | 360° |
| 2026-04-27 21:34 | -11.15717 | -77.29145 | 25700 ft | 480 kts | 360° |
| 2026-04-27 21:34 | -11.12372 | -77.29175 | 26019 ft | 482 kts | 360° |
| 2026-04-27 21:35 | -11.09046 | -77.29204 | 26321 ft | 485 kts | 360° |
| 2026-04-27 21:35 | -11.05667 | -77.29232 | 26645 ft | 487 kts | 360° |
| 2026-04-27 21:35 | -11.02264 | -77.29262 | 26993 ft | 488 kts | 360° |
| 2026-04-27 21:35 | -10.98867 | -77.29291 | 27329 ft | 490 kts | 359° |
| 2026-04-27 21:36 | -10.95438 | -77.29321 | 27629 ft | 492 kts | 359° |
| 2026-04-27 21:36 | -10.92009 | -77.29350 | 27903 ft | 495 kts | 359° |
| 2026-04-27 21:36 | -10.88560 | -77.29380 | 28199 ft | 497 kts | 359° |
| 2026-04-27 21:36 | -10.85092 | -77.29410 | 28479 ft | 499 kts | 359° |
| 2026-04-27 21:37 | -10.81611 | -77.29440 | 28754 ft | 501 kts | 359° |
| 2026-04-27 21:37 | -10.78107 | -77.29471 | 29013 ft | 503 kts | 359° |
| 2026-04-27 21:37 | -10.74636 | -77.29500 | 29383 ft | 502 kts | 359° |
| 2026-04-27 21:37 | -10.71140 | -77.29530 | 29787 ft | 501 kts | 359° |
| 2026-04-27 21:38 | -10.67653 | -77.29560 | 30201 ft | 499 kts | 359° |
| 2026-04-27 21:38 | -10.64186 | -77.29590 | 30611 ft | 497 kts | 359° |
| 2026-04-27 21:38 | -10.60734 | -77.29620 | 31020 ft | 494 kts | 359° |
| 2026-04-27 21:38 | -10.57302 | -77.29649 | 31373 ft | 493 kts | 359° |
| 2026-04-27 21:39 | -10.53866 | -77.29679 | 31720 ft | 492 kts | 359° |
| 2026-04-27 21:39 | -10.50448 | -77.29711 | 32019 ft | 493 kts | 358° |
| 2026-04-27 21:39 | -10.43566 | -77.29983 | 32119 ft | 494 kts | 356° |
| 2026-04-27 21:40 | -10.36770 | -77.30370 | 32116 ft | 489 kts | 356° |
| 2026-04-27 21:40 | -10.29981 | -77.30741 | 32152 ft | 488 kts | 356° |
| 2026-04-27 21:41 | -10.23179 | -77.31084 | 32148 ft | 488 kts | 356° |
| 2026-04-27 21:41 | -10.16384 | -77.31414 | 32179 ft | 489 kts | 357° |
| 2026-04-27 21:42 | -10.09624 | -77.31741 | 32181 ft | 489 kts | 356° |
| 2026-04-27 21:42 | -10.02803 | -77.32073 | 32201 ft | 490 kts | 356° |
| 2026-04-27 21:43 | -9.95983 | -77.32406 | 32201 ft | 490 kts | 356° |
| 2026-04-27 21:43 | -9.89152 | -77.32739 | 32199 ft | 491 kts | 356° |
| 2026-04-27 21:44 | -9.82370 | -77.33069 | 32209 ft | 491 kts | 356° |
| 2026-04-27 21:44 | -9.75535 | -77.33402 | 32213 ft | 491 kts | 356° |
| 2026-04-27 21:45 | -9.68711 | -77.33734 | 32214 ft | 491 kts | 356° |
| 2026-04-27 21:45 | -9.61892 | -77.34066 | 32215 ft | 490 kts | 356° |
| 2026-04-27 21:46 | -9.55063 | -77.34399 | 32235 ft | 490 kts | 356° |
| 2026-04-27 21:46 | -9.48288 | -77.34728 | 32250 ft | 491 kts | 356° |
| 2026-04-27 21:47 | -9.41419 | -77.35062 | 32254 ft | 491 kts | 356° |
| 2026-04-27 21:47 | -9.34631 | -77.35392 | 32257 ft | 491 kts | 356° |
| 2026-04-27 21:48 | -9.27783 | -77.35724 | 32246 ft | 491 kts | 356° |
| 2026-04-27 21:48 | -9.20954 | -77.36055 | 32236 ft | 491 kts | 356° |
| 2026-04-27 21:49 | -9.14173 | -77.36385 | 32215 ft | 490 kts | 357° |
| 2026-04-27 21:49 | -9.07362 | -77.36715 | 32199 ft | 489 kts | 356° |
| 2026-04-27 21:50 | -9.00557 | -77.37045 | 32177 ft | 489 kts | 357° |
| 2026-04-27 21:50 | -8.93752 | -77.37375 | 32179 ft | 489 kts | 357° |
| 2026-04-27 21:51 | -8.86989 | -77.37703 | 32176 ft | 489 kts | 356° |
| 2026-04-27 21:51 | -8.80182 | -77.38032 | 32173 ft | 489 kts | 357° |
| 2026-04-27 21:52 | -8.73380 | -77.38362 | 32174 ft | 489 kts | 356° |
| 2026-04-27 21:52 | -8.66577 | -77.38691 | 32154 ft | 488 kts | 356° |
| 2026-04-27 21:53 | -8.59786 | -77.39019 | 32156 ft | 488 kts | 356° |
| 2026-04-27 21:53 | -8.52991 | -77.39348 | 32136 ft | 488 kts | 357° |
| 2026-04-27 21:54 | -8.46245 | -77.39675 | 32138 ft | 489 kts | 356° |
| 2026-04-27 21:54 | -8.39450 | -77.40003 | 32124 ft | 489 kts | 357° |
| 2026-04-27 21:55 | -8.32626 | -77.40333 | 32122 ft | 489 kts | 357° |
| 2026-04-27 21:55 | -8.25859 | -77.40659 | 32120 ft | 489 kts | 357° |
| 2026-04-27 21:56 | -8.15659 | -77.41152 | 32119 ft | 489 kts | 357° |
| 2026-04-27 21:57 | -8.08863 | -77.41479 | 32110 ft | 488 kts | 356° |
| 2026-04-27 21:57 | -8.02086 | -77.41806 | 32109 ft | 487 kts | 356° |
| 2026-04-27 21:58 | -7.95346 | -77.42131 | 32075 ft | 487 kts | 357° |
| 2026-04-27 21:58 | -7.88566 | -77.42459 | 32079 ft | 487 kts | 356° |
| 2026-04-27 21:59 | -7.81782 | -77.42785 | 32059 ft | 488 kts | 357° |
| 2026-04-27 21:59 | -7.75001 | -77.43112 | 32054 ft | 488 kts | 357° |
| 2026-04-27 22:00 | -7.68253 | -77.43437 | 32039 ft | 488 kts | 357° |
| 2026-04-27 22:00 | -7.61477 | -77.43763 | 32040 ft | 487 kts | 356° |
| 2026-04-27 22:01 | -7.54705 | -77.44089 | 32036 ft | 487 kts | 357° |
| 2026-04-27 22:01 | -7.47918 | -77.44416 | 32039 ft | 487 kts | 356° |
| 2026-04-27 22:02 | -7.41137 | -77.44742 | 32032 ft | 487 kts | 357° |
| 2026-04-27 22:02 | -7.34371 | -77.45068 | 32026 ft | 485 kts | 357° |
| 2026-04-27 22:03 | -7.27636 | -77.45392 | 32021 ft | 484 kts | 357° |
| 2026-04-27 22:03 | -7.20952 | -77.45713 | 32040 ft | 483 kts | 357° |
| 2026-04-27 22:04 | -7.14213 | -77.46042 | 32035 ft | 485 kts | 357° |
| 2026-04-27 22:04 | -7.07473 | -77.46373 | 32039 ft | 485 kts | 357° |
| 2026-04-27 22:05 | -7.01857 | -77.46648 | 32035 ft | 486 kts | 357° |
| 2026-04-27 22:05 | -6.93966 | -77.47033 | 32046 ft | 488 kts | 357° |
| 2026-04-27 22:06 | -6.88332 | -77.47308 | 32048 ft | 488 kts | 357° |
| 2026-04-27 22:06 | -6.81525 | -77.47640 | 32052 ft | 488 kts | 357° |
| 2026-04-27 22:07 | -6.74741 | -77.47971 | 32052 ft | 487 kts | 357° |
| 2026-04-27 22:07 | -6.68003 | -77.48300 | 32046 ft | 487 kts | 358° |
| 2026-04-27 22:08 | -6.61230 | -77.48629 | 32052 ft | 486 kts | 358° |
| 2026-04-27 22:08 | -6.54450 | -77.48957 | 32058 ft | 486 kts | 358° |
| 2026-04-27 22:09 | -6.47724 | -77.49282 | 32055 ft | 486 kts | 358° |
| 2026-04-27 22:09 | -6.40967 | -77.49609 | 32064 ft | 486 kts | 358° |
| 2026-04-27 22:10 | -6.34197 | -77.49937 | 32081 ft | 486 kts | 358° |
| 2026-04-27 22:10 | -6.27430 | -77.50265 | 32076 ft | 488 kts | 358° |
| 2026-04-27 22:11 | -6.20656 | -77.50592 | 32084 ft | 490 kts | 358° |
| 2026-04-27 22:11 | -6.13826 | -77.50922 | 32091 ft | 491 kts | 358° |
| 2026-04-27 22:12 | -6.06987 | -77.51254 | 32083 ft | 492 kts | 358° |
| 2026-04-27 22:12 | -6.00153 | -77.51584 | 32077 ft | 492 kts | 358° |
| 2026-04-27 22:13 | -5.93358 | -77.51908 | 32065 ft | 491 kts | 358° |
| 2026-04-27 22:13 | -5.86519 | -77.52232 | 32095 ft | 491 kts | 358° |
| 2026-04-27 22:14 | -5.79686 | -77.52558 | 32081 ft | 491 kts | 358° |
| 2026-04-27 22:14 | -5.72880 | -77.52882 | 32074 ft | 491 kts | 358° |
| 2026-04-27 22:15 | -5.66051 | -77.53207 | 32078 ft | 492 kts | 358° |
| 2026-04-27 22:15 | -5.59206 | -77.53533 | 32057 ft | 492 kts | 358° |
| 2026-04-27 22:16 | -5.52372 | -77.53858 | 32060 ft | 488 kts | 358° |
| 2026-04-27 22:16 | -5.45627 | -77.54180 | 32026 ft | 483 kts | 358° |
| 2026-04-27 22:17 | -5.38957 | -77.54497 | 32034 ft | 483 kts | 357° |
| 2026-04-27 22:17 | -5.32217 | -77.54818 | 32017 ft | 484 kts | 358° |
| 2026-04-27 22:18 | -5.25471 | -77.55138 | 32014 ft | 486 kts | 357° |
| 2026-04-27 22:18 | -5.18697 | -77.55460 | 31981 ft | 487 kts | 357° |
| 2026-04-27 22:19 | -5.11962 | -77.55780 | 31992 ft | 488 kts | 357° |
| 2026-04-27 22:19 | -5.05152 | -77.56104 | 31958 ft | 490 kts | 357° |
| 2026-04-27 22:20 | -4.98321 | -77.56428 | 31960 ft | 491 kts | 357° |
| 2026-04-27 22:20 | -4.91536 | -77.56750 | 31959 ft | 491 kts | 357° |
| 2026-04-27 22:21 | -4.84715 | -77.57074 | 31941 ft | 490 kts | 357° |
| 2026-04-27 22:21 | -4.77899 | -77.57398 | 31944 ft | 489 kts | 357° |
| 2026-04-27 22:22 | -4.71109 | -77.57721 | 31918 ft | 487 kts | 357° |
| 2026-04-27 22:22 | -4.64339 | -77.58042 | 31921 ft | 486 kts | 357° |
| 2026-04-27 22:23 | -4.57622 | -77.58360 | 31913 ft | 485 kts | 357° |
| 2026-04-27 22:23 | -4.50856 | -77.58681 | 31910 ft | 487 kts | 357° |
| 2026-04-27 22:24 | -4.44078 | -77.59002 | 31895 ft | 488 kts | 356° |
| 2026-04-27 22:24 | -4.37330 | -77.59324 | 31916 ft | 488 kts | 356° |
| 2026-04-27 22:25 | -4.30536 | -77.59647 | 31896 ft | 490 kts | 356° |
| 2026-04-27 22:25 | -4.23727 | -77.59969 | 31907 ft | 489 kts | 356° |
| 2026-04-27 22:26 | -4.16926 | -77.60290 | 31898 ft | 488 kts | 356° |
| 2026-04-27 22:26 | -4.10128 | -77.60613 | 31897 ft | 488 kts | 356° |
| 2026-04-27 22:27 | -4.03394 | -77.60932 | 31900 ft | 488 kts | 356° |
| 2026-04-27 22:27 | -3.96613 | -77.61253 | 31922 ft | 487 kts | 356° |
| 2026-04-27 22:28 | -3.89839 | -77.61574 | 31920 ft | 488 kts | 356° |
| 2026-04-27 22:28 | -3.83039 | -77.61896 | 31924 ft | 488 kts | 356° |
| 2026-04-27 22:29 | -3.76238 | -77.62219 | 31917 ft | 489 kts | 356° |
| 2026-04-27 22:29 | -3.69482 | -77.62538 | 31955 ft | 489 kts | 356° |
| 2026-04-27 22:30 | -3.62674 | -77.62861 | 31952 ft | 490 kts | 356° |
| 2026-04-27 22:30 | -3.55850 | -77.63184 | 31956 ft | 491 kts | 356° |
| 2026-04-27 22:31 | -3.49030 | -77.63506 | 31959 ft | 490 kts | 356° |
| 2026-04-27 22:31 | -3.42214 | -77.63829 | 31946 ft | 490 kts | 356° |
| 2026-04-27 22:32 | -3.35394 | -77.64152 | 31945 ft | 490 kts | 356° |
| 2026-04-27 22:32 | -3.28618 | -77.64472 | 31947 ft | 490 kts | 356° |
| 2026-04-27 22:33 | -3.21796 | -77.64795 | 31938 ft | 491 kts | 356° |
| 2026-04-27 22:33 | -3.14962 | -77.65118 | 31940 ft | 491 kts | 356° |
| 2026-04-27 22:34 | -3.08138 | -77.65441 | 31936 ft | 491 kts | 356° |
| 2026-04-27 22:34 | -3.01344 | -77.65762 | 31934 ft | 491 kts | 356° |
| 2026-04-27 22:35 | -2.94505 | -77.66085 | 31935 ft | 491 kts | 355° |
| 2026-04-27 22:35 | -2.87666 | -77.66455 | 31936 ft | 491 kts | 355° |
| 2026-04-27 22:36 | -2.80850 | -77.66865 | 31963 ft | 491 kts | 355° |
| 2026-04-27 22:36 | -2.74018 | -77.67274 | 31963 ft | 491 kts | 355° |
| 2026-04-27 22:37 | -2.67177 | -77.67675 | 31977 ft | 492 kts | 355° |
| 2026-04-27 22:37 | -2.60398 | -77.68073 | 31967 ft | 492 kts | 355° |
| 2026-04-27 22:38 | -2.53557 | -77.68473 | 31988 ft | 492 kts | 355° |
| 2026-04-27 22:38 | -2.46721 | -77.68866 | 31998 ft | 493 kts | 355° |
| 2026-04-27 22:39 | -2.39866 | -77.69269 | 31992 ft | 494 kts | 355° |
| 2026-04-27 22:39 | -2.32989 | -77.69666 | 31990 ft | 494 kts | 355° |
| 2026-04-27 22:40 | -2.26120 | -77.70064 | 32001 ft | 493 kts | 355° |
| 2026-04-27 22:40 | -2.19293 | -77.70462 | 32193 ft | 498 kts | 355° |
| 2026-04-27 22:40 | -2.15825 | -77.70664 | 32575 ft | 496 kts | 355° |
| 2026-04-27 22:41 | -2.12385 | -77.70864 | 32993 ft | 492 kts | 355° |
| 2026-04-27 22:41 | -2.08966 | -77.71063 | 33384 ft | 490 kts | 355° |
| 2026-04-27 22:41 | -2.05574 | -77.71260 | 33715 ft | 489 kts | 355° |
| 2026-04-27 22:41 | -2.02176 | -77.71458 | 33928 ft | 489 kts | 355° |
| 2026-04-27 22:42 | -1.98767 | -77.71657 | 33967 ft | 491 kts | 355° |
| 2026-04-27 22:42 | -1.91981 | -77.72052 | 33987 ft | 489 kts | 355° |
| 2026-04-27 22:43 | -1.85177 | -77.72448 | 33977 ft | 488 kts | 355° |
| 2026-04-27 22:43 | -1.78400 | -77.72842 | 33976 ft | 487 kts | 355° |
| 2026-04-27 22:44 | -1.71632 | -77.73236 | 33981 ft | 488 kts | 355° |
| 2026-04-27 22:44 | -1.64872 | -77.73630 | 33978 ft | 489 kts | 355° |
| 2026-04-27 22:45 | -1.58058 | -77.74026 | 33970 ft | 491 kts | 355° |
| 2026-04-27 22:45 | -1.51230 | -77.74423 | 33965 ft | 492 kts | 355° |
| 2026-04-27 22:46 | -1.44418 | -77.74819 | 33954 ft | 493 kts | 356° |
| 2026-04-27 22:46 | -1.37564 | -77.75218 | 33958 ft | 494 kts | 356° |
| 2026-04-27 22:47 | -1.30692 | -77.75617 | 33942 ft | 494 kts | 355° |
| 2026-04-27 22:47 | -1.23850 | -77.76015 | 33927 ft | 494 kts | 356° |
| 2026-04-27 22:48 | -1.16935 | -77.76417 | 33932 ft | 494 kts | 355° |
| 2026-04-27 22:48 | -1.10110 | -77.76814 | 33918 ft | 494 kts | 356° |
| 2026-04-27 22:49 | -1.03216 | -77.77215 | 33931 ft | 496 kts | 356° |
| 2026-04-27 22:49 | -0.96297 | -77.77618 | 33943 ft | 499 kts | 356° |
| 2026-04-27 22:50 | -0.89399 | -77.78019 | 33978 ft | 500 kts | 356° |
| 2026-04-27 22:50 | -0.82451 | -77.78422 | 34015 ft | 499 kts | 356° |
| 2026-04-27 22:51 | -0.75519 | -77.78825 | 34067 ft | 498 kts | 356° |
| 2026-04-27 22:51 | -0.68599 | -77.79228 | 34125 ft | 497 kts | 356° |
| 2026-04-27 22:52 | -0.61682 | -77.79630 | 34119 ft | 496 kts | 356° |
| 2026-04-27 22:52 | -0.54822 | -77.80029 | 34161 ft | 496 kts | 356° |
| 2026-04-27 22:53 | -0.52491 | -77.80164 | 34164 ft | 496 kts | 356° |